createdAt,value
2022-10-31T00:01:14.129Z,24.30
2022-10-31T00:03:41.179Z,27.13
2022-10-31T00:06:08.363Z,30.70
2022-10-31T00:08:36.682Z,25.07
2022-10-31T00:11:03.955Z,25.73
2022-10-31T00:13:32.026Z,22.30
2022-10-31T00:15:58.964Z,25.97
2022-10-31T00:18:25.942Z,26.63
2022-10-31T00:21:00.564Z,26.73
2022-10-31T00:23:27.611Z,23.63
2022-10-31T00:26:01.332Z,19.47
2022-10-31T00:28:28.414Z,25.70
2022-10-31T00:30:55.412Z,24.03
2022-10-31T00:33:22.426Z,24.30
2022-10-31T00:35:51.711Z,24.57
2022-10-31T00:38:18.659Z,28.13
2022-10-31T00:40:45.557Z,22.47
2022-10-31T00:43:13.852Z,24.90
2022-10-31T00:45:42.042Z,21.83
2022-10-31T00:48:09.079Z,24.40
2022-10-31T00:50:36.830Z,22.83
2022-10-31T00:53:03.822Z,20.40
2022-10-31T00:55:30.911Z,25.27
2022-10-31T00:57:58.462Z,20.60
2022-10-31T01:00:27.350Z,23.40
2022-10-31T01:02:54.422Z,20.93
2022-10-31T01:05:21.369Z,22.40
2022-10-31T01:07:48.359Z,24.87
2022-10-31T01:10:15.567Z,25.03
2022-10-31T01:12:47.405Z,20.53
2022-10-31T01:15:19.562Z,18.57
2022-10-31T01:17:47.974Z,26.03
2022-10-31T01:20:16.406Z,23.67
2022-10-31T01:22:43.426Z,24.13
2022-10-31T01:25:11.771Z,20.80
2022-10-31T01:27:38.947Z,22.10
2022-10-31T01:30:07.733Z,29.27
2022-10-31T01:32:34.755Z,21.87
2022-10-31T01:35:03.461Z,25.80
2022-10-31T01:37:31.887Z,22.50
2022-10-31T01:39:58.787Z,23.57
2022-10-31T01:42:25.844Z,26.00
2022-10-31T01:45:00.429Z,25.93
2022-10-31T01:47:47.922Z,23.63
2022-10-31T01:50:29.046Z,24.40
2022-10-31T01:52:57.057Z,23.83
2022-10-31T01:55:30.910Z,19.73
2022-10-31T01:58:06.177Z,21.77
2022-10-31T02:00:33.601Z,24.87
2022-10-31T02:03:01.387Z,25.80
2022-10-31T02:05:31.455Z,24.37
2022-10-31T02:08:05.294Z,23.57
2022-10-31T02:10:35.050Z,25.33
2022-10-31T02:13:06.028Z,23.07
2022-10-31T02:15:33.954Z,20.07
2022-10-31T02:18:02.103Z,22.17
2022-10-31T02:20:37.812Z,22.27
2022-10-31T02:23:59.119Z,30.30
2022-10-31T02:27:13.146Z,25.33
2022-10-31T02:30:11.894Z,26.30
2022-10-31T02:32:53.822Z,21.47
2022-10-31T02:35:40.229Z,23.73
2022-10-31T02:38:25.785Z,19.30
2022-10-31T02:41:04.348Z,27.13
2022-10-31T02:43:44.847Z,26.10
2022-10-31T02:46:21.150Z,25.10
2022-10-31T02:48:53.594Z,26.07
2022-10-31T02:51:21.661Z,23.77
2022-10-31T02:53:48.614Z,20.90
2022-10-31T02:56:18.255Z,24.07
2022-10-31T02:58:53.653Z,25.23
2022-10-31T03:02:18.813Z,21.27
2022-10-31T03:05:15.946Z,20.37
2022-10-31T03:07:56.214Z,28.90
2022-10-31T03:10:40.628Z,25.80
2022-10-31T03:13:18.550Z,31.27
2022-10-31T03:15:51.967Z,24.60
2022-10-31T03:18:29.018Z,25.13
2022-10-31T03:21:06.341Z,21.87
2022-10-31T03:23:36.530Z,27.23
2022-10-31T03:26:08.640Z,27.87
2022-10-31T03:28:44.460Z,29.77
2022-10-31T03:31:17.425Z,25.13
2022-10-31T03:33:47.011Z,27.57
2022-10-31T03:36:18.471Z,26.63
2022-10-31T03:38:48.330Z,25.50
2022-10-31T03:41:31.491Z,27.23
2022-10-31T03:44:03.707Z,24.20
2022-10-31T03:46:30.908Z,25.23
2022-10-31T03:48:59.583Z,26.93
2022-10-31T03:51:40.708Z,27.63
2022-10-31T03:54:17.246Z,30.40
2022-10-31T03:56:52.913Z,24.50
2022-10-31T03:59:27.658Z,23.30
2022-10-31T04:02:04.156Z,24.07
2022-10-31T04:04:31.892Z,29.53
2022-10-31T04:07:04.064Z,24.13
2022-10-31T04:09:37.534Z,22.07
2022-10-31T04:12:09.855Z,27.83
2022-10-31T04:14:40.057Z,30.40
2022-10-31T04:17:14.688Z,29.07
2022-10-31T04:19:41.889Z,24.90
2022-10-31T04:22:10.406Z,25.93
2022-10-31T04:24:40.571Z,21.73
2022-10-31T04:27:08.116Z,29.77
2022-10-31T04:29:35.136Z,21.57
2022-10-31T04:32:02.106Z,21.17
2022-10-31T04:34:29.069Z,21.10
2022-10-31T04:36:56.038Z,22.80
2022-10-31T04:39:26.653Z,23.33
2022-10-31T04:41:54.026Z,24.97
2022-10-31T04:44:21.174Z,33.47
2022-10-31T04:46:48.146Z,35.30
2022-10-31T04:49:15.106Z,31.43
2022-10-31T04:51:42.013Z,33.63
2022-10-31T04:54:09.207Z,46.60
2022-10-31T04:56:37.449Z,41.70
2022-10-31T04:59:04.406Z,35.77
2022-10-31T05:01:31.469Z,31.93
2022-10-31T05:03:58.461Z,34.10
2022-10-31T05:06:25.396Z,47.63
2022-10-31T05:08:52.332Z,41.93
2022-10-31T05:11:19.315Z,41.03
2022-10-31T05:13:47.571Z,33.57
2022-10-31T05:16:14.749Z,23.00
2022-10-31T05:18:41.687Z,25.23
2022-10-31T05:21:08.703Z,36.80
2022-10-31T05:23:35.695Z,27.07
2022-10-31T05:26:02.628Z,25.63
2022-10-31T05:28:29.553Z,21.40
2022-10-31T05:30:57.807Z,22.63
2022-10-31T05:33:24.729Z,26.87
2022-10-31T05:35:51.650Z,22.60
2022-10-31T05:38:18.551Z,25.13
2022-10-31T05:40:45.474Z,25.20
2022-10-31T05:43:12.496Z,24.03
2022-10-31T05:45:39.422Z,22.50
2022-10-31T05:48:09.146Z,23.10
2022-10-31T05:50:36.047Z,26.10
2022-10-31T05:53:05.820Z,22.10
2022-10-31T05:55:33.211Z,23.37
2022-10-31T05:58:00.414Z,21.10
2022-10-31T06:00:28.801Z,18.37
2022-10-31T06:03:00.409Z,21.23
2022-10-31T06:05:29.219Z,20.00
2022-10-31T06:07:56.652Z,23.00
2022-10-31T06:10:24.463Z,18.57
2022-10-31T06:12:51.587Z,18.70
2022-10-31T06:15:23.505Z,18.43
2022-10-31T06:18:00.649Z,22.60
2022-10-31T06:20:29.357Z,23.90
2022-10-31T06:22:56.357Z,22.50
2022-10-31T06:25:23.468Z,16.97
2022-10-31T06:27:50.450Z,19.87
2022-10-31T06:30:17.725Z,13.67
2022-10-31T06:32:44.693Z,14.60
2022-10-31T06:35:12.054Z,15.13
2022-10-31T06:37:40.582Z,14.20
2022-10-31T06:40:08.987Z,16.17
2022-10-31T06:42:35.912Z,13.33
2022-10-31T06:45:03.184Z,15.40
2022-10-31T06:47:30.166Z,15.53
2022-10-31T06:49:57.329Z,15.90
2022-10-31T06:52:24.376Z,13.83
2022-10-31T06:54:52.666Z,14.50
2022-10-31T06:57:19.795Z,12.97
2022-10-31T06:59:46.764Z,14.60
2022-10-31T07:02:13.858Z,13.27
2022-10-31T07:04:40.947Z,12.93
2022-10-31T07:07:07.884Z,12.67
2022-10-31T07:09:34.864Z,15.80
2022-10-31T07:12:03.283Z,13.97
2022-10-31T07:14:30.259Z,15.43
2022-10-31T07:16:57.192Z,18.70
2022-10-31T07:19:24.161Z,18.87
2022-10-31T07:21:51.062Z,17.67
2022-10-31T07:24:17.979Z,17.53
2022-10-31T07:26:46.812Z,18.53
2022-10-31T07:29:15.109Z,15.03
2022-10-31T07:31:42.188Z,17.80
2022-10-31T07:34:09.150Z,19.10
2022-10-31T07:36:36.121Z,16.50
2022-10-31T07:39:03.682Z,18.90
2022-10-31T07:41:30.611Z,15.43
2022-10-31T07:43:57.547Z,18.60
2022-10-31T07:46:25.839Z,17.33
2022-10-31T07:48:52.824Z,15.07
2022-10-31T07:51:19.762Z,16.83
2022-10-31T07:53:46.689Z,16.37
2022-10-31T07:56:13.614Z,17.10
2022-10-31T07:58:40.529Z,16.80
2022-10-31T08:01:07.661Z,18.27
2022-10-31T08:03:35.991Z,15.37
2022-10-31T08:06:03.018Z,16.17
2022-10-31T08:08:32.309Z,15.90
2022-10-31T08:11:01.621Z,22.17
2022-10-31T08:13:28.550Z,13.60
2022-10-31T08:15:56.614Z,19.23
2022-10-31T08:18:24.635Z,15.33
2022-10-31T08:20:54.486Z,12.93
2022-10-31T08:23:21.546Z,13.70
2022-10-31T08:25:48.853Z,15.63
2022-10-31T08:28:16.104Z,13.60
2022-10-31T08:30:43.274Z,17.10
2022-10-31T08:33:13.876Z,22.80
2022-10-31T08:35:41.919Z,13.07
2022-10-31T08:38:11.945Z,14.00
2022-10-31T08:40:39.709Z,12.53
2022-10-31T08:43:15.789Z,13.27
2022-10-31T08:45:44.569Z,12.93
2022-10-31T08:48:14.030Z,12.83
2022-10-31T08:50:42.079Z,13.33
2022-10-31T08:53:13.772Z,11.63
2022-10-31T08:55:42.449Z,11.27
2022-10-31T08:58:14.206Z,11.83
2022-10-31T09:00:41.748Z,14.00
2022-10-31T09:03:15.149Z,13.87
2022-10-31T09:05:42.676Z,13.57
2022-10-31T09:08:15.987Z,13.40
2022-10-31T09:10:45.157Z,11.43
2022-10-31T09:13:15.336Z,12.70
2022-10-31T09:15:45.444Z,12.23
2022-10-31T09:18:14.462Z,14.33
2022-10-31T09:20:43.518Z,14.83
2022-10-31T09:23:14.698Z,13.43
2022-10-31T09:25:49.186Z,13.63
2022-10-31T09:28:20.722Z,14.27
2022-10-31T09:30:49.889Z,15.30
2022-10-31T09:33:17.602Z,17.83
2022-10-31T09:35:44.824Z,14.47
2022-10-31T09:38:16.072Z,15.87
2022-10-31T09:40:46.745Z,14.27
2022-10-31T09:43:26.025Z,14.70
2022-10-31T09:46:05.646Z,16.43
2022-10-31T09:48:48.076Z,15.23
2022-10-31T09:51:21.118Z,16.03
2022-10-31T09:53:55.803Z,16.33
2022-10-31T09:56:25.654Z,17.63
2022-10-31T09:58:59.101Z,16.00
2022-10-31T10:01:44.010Z,17.13
2022-10-31T10:04:40.317Z,16.90
2022-10-31T10:07:22.799Z,17.63
2022-10-31T10:09:51.234Z,16.50
2022-10-31T10:12:34.649Z,16.10
2022-10-31T10:15:27.897Z,17.07
2022-10-31T10:18:09.967Z,17.73
2022-10-31T10:20:49.799Z,15.73
2022-10-31T10:23:40.114Z,15.80
2022-10-31T10:26:19.678Z,15.57
2022-10-31T10:28:54.580Z,16.80
2022-10-31T10:31:28.275Z,17.23
2022-10-31T10:34:19.920Z,20.17
2022-10-31T10:36:53.168Z,18.07
2022-10-31T10:39:29.384Z,18.57
2022-10-31T10:42:18.959Z,18.50
2022-10-31T10:45:09.575Z,20.10
2022-10-31T10:47:43.365Z,19.07
2022-10-31T10:50:18.564Z,19.33
2022-10-31T10:53:02.059Z,16.67
2022-10-31T10:55:41.693Z,18.70
2022-10-31T10:58:11.889Z,17.33
2022-10-31T11:00:42.980Z,17.50
2022-10-31T11:03:11.571Z,20.33
2022-10-31T11:05:45.800Z,21.70
2022-10-31T11:08:27.386Z,17.63
2022-10-31T11:11:01.612Z,17.43
2022-10-31T11:13:32.193Z,22.03
2022-10-31T11:16:04.233Z,18.03
2022-10-31T11:18:35.973Z,18.80
2022-10-31T11:21:05.498Z,16.13
2022-10-31T11:23:33.787Z,21.33
2022-10-31T11:26:04.543Z,19.40
2022-10-31T11:28:37.536Z,19.10
2022-10-31T11:31:12.406Z,19.10
2022-10-31T11:33:48.318Z,16.93
2022-10-31T11:36:22.027Z,19.43
2022-10-31T11:38:50.325Z,18.67
2022-10-31T11:41:20.863Z,19.13
2022-10-31T11:43:54.350Z,18.57
2022-10-31T11:46:31.496Z,19.17
2022-10-31T11:48:58.622Z,17.37
2022-10-31T11:51:30.935Z,19.30
2022-10-31T11:54:03.232Z,17.97
2022-10-31T11:56:41.015Z,21.40
2022-10-31T11:59:23.290Z,16.67
2022-10-31T12:01:52.446Z,22.43
2022-10-31T12:04:25.253Z,23.17
2022-10-31T12:06:53.824Z,24.10
2022-10-31T12:09:24.357Z,21.00
2022-10-31T12:12:25.144Z,20.67
2022-10-31T12:15:13.137Z,25.97
2022-10-31T12:17:50.274Z,24.17
2022-10-31T12:20:29.108Z,20.27
2022-10-31T12:23:07.341Z,22.90
2022-10-31T12:25:48.196Z,22.80
2022-10-31T12:28:55.233Z,21.77
2022-10-31T12:31:44.694Z,23.93
2022-10-31T12:34:57.208Z,23.20
2022-10-31T12:37:49.230Z,22.40
2022-10-31T12:40:48.891Z,22.53
2022-10-31T12:43:36.324Z,20.53
2022-10-31T12:46:09.236Z,19.60
2022-10-31T12:49:16.525Z,22.17
2022-10-31T12:52:00.655Z,22.87
2022-10-31T12:54:52.182Z,26.67
2022-10-31T12:57:30.425Z,22.97
2022-10-31T13:00:04.663Z,20.67
2022-10-31T13:02:39.965Z,21.23
2022-10-31T13:05:19.082Z,24.07
2022-10-31T13:07:56.295Z,23.63
2022-10-31T13:10:31.313Z,26.50
2022-10-31T13:13:08.198Z,25.50
2022-10-31T13:15:48.060Z,28.80
2022-10-31T13:18:31.030Z,26.90
2022-10-31T13:21:06.243Z,29.60
2022-10-31T13:23:50.410Z,29.50
2022-10-31T13:26:37.956Z,28.40
2022-10-31T13:29:16.616Z,23.57
2022-10-31T13:31:44.154Z,25.97
2022-10-31T13:34:25.251Z,22.37
2022-10-31T13:37:11.040Z,23.63
2022-10-31T13:40:03.958Z,28.17
2022-10-31T13:42:53.985Z,25.27
2022-10-31T13:45:24.414Z,23.23
2022-10-31T13:48:01.876Z,21.57
2022-10-31T13:50:32.014Z,23.43
2022-10-31T13:53:15.065Z,23.07
2022-10-31T13:55:45.203Z,24.47
2022-10-31T13:58:26.510Z,24.67
2022-10-31T14:01:13.570Z,26.33
2022-10-31T14:04:06.261Z,24.57
2022-10-31T14:06:44.916Z,24.77
2022-10-31T14:09:30.190Z,20.67
2022-10-31T14:12:01.363Z,24.30
2022-10-31T14:14:42.508Z,23.37
2022-10-31T14:17:21.470Z,23.63
2022-10-31T14:20:02.400Z,24.13
2022-10-31T14:22:37.395Z,26.07
2022-10-31T14:25:30.247Z,20.43
2022-10-31T14:27:59.173Z,24.57
2022-10-31T14:30:30.029Z,21.00
2022-10-31T14:33:02.559Z,30.20
2022-10-31T14:35:57.384Z,26.90
2022-10-31T14:38:45.280Z,20.40
2022-10-31T14:41:38.692Z,25.07
2022-10-31T14:44:55.960Z,21.83
2022-10-31T14:47:40.234Z,22.57
2022-10-31T14:50:31.971Z,23.27
2022-10-31T14:53:03.728Z,20.70
2022-10-31T14:55:31.736Z,28.10
2022-10-31T14:58:07.084Z,27.50
2022-10-31T15:00:36.987Z,23.13
2022-10-31T15:03:16.611Z,24.23
2022-10-31T15:05:50.683Z,22.73
2022-10-31T15:08:34.002Z,21.60
2022-10-31T15:11:10.971Z,22.07
2022-10-31T15:13:48.311Z,20.93
2022-10-31T15:16:21.013Z,29.70
2022-10-31T15:18:54.161Z,19.83
2022-10-31T15:21:24.114Z,26.83
2022-10-31T15:23:54.211Z,22.47
2022-10-31T15:26:24.301Z,24.27
2022-10-31T15:29:05.035Z,21.80
2022-10-31T15:31:33.128Z,17.97
2022-10-31T15:34:08.000Z,20.23
2022-10-31T15:36:38.464Z,24.80
2022-10-31T15:39:06.178Z,21.20
2022-10-31T15:41:38.526Z,22.13
2022-10-31T15:44:17.334Z,23.27
2022-10-31T15:46:44.419Z,18.80
2022-10-31T15:49:35.149Z,25.53
2022-10-31T15:52:13.179Z,20.33
2022-10-31T15:54:49.212Z,20.40
2022-10-31T15:57:17.197Z,24.37
2022-10-31T15:59:49.175Z,23.70
2022-10-31T16:02:21.485Z,25.57
2022-10-31T16:04:56.322Z,21.27
2022-10-31T16:07:24.815Z,18.37
2022-10-31T16:09:55.318Z,22.27
2022-10-31T16:12:24.789Z,22.40
2022-10-31T16:14:55.825Z,21.37
2022-10-31T16:17:27.185Z,23.87
2022-10-31T16:19:58.879Z,20.47
2022-10-31T16:22:30.254Z,20.77
2022-10-31T16:25:06.931Z,21.83
2022-10-31T16:27:38.227Z,21.77
2022-10-31T16:30:43.952Z,22.37
2022-10-31T16:33:28.647Z,23.07
2022-10-31T16:36:09.495Z,20.47
2022-10-31T16:38:45.010Z,27.93
2022-10-31T16:41:11.937Z,24.00
2022-10-31T16:43:38.889Z,22.73
2022-10-31T16:48:45.795Z,21.83
2022-10-31T16:51:12.843Z,18.57
2022-10-31T16:53:45.634Z,17.93
2022-10-31T16:56:18.612Z,20.77
2022-10-31T16:58:46.015Z,21.03
2022-10-31T17:01:14.479Z,20.77
2022-10-31T17:03:41.503Z,18.90
2022-10-31T17:06:12.758Z,18.40
2022-10-31T17:08:39.719Z,19.97
2022-10-31T17:11:13.271Z,16.80
2022-10-31T17:13:40.342Z,18.27
2022-10-31T17:16:07.883Z,20.53
2022-10-31T17:18:36.143Z,17.90
2022-10-31T17:21:06.139Z,18.90
2022-10-31T17:23:33.529Z,24.73
2022-10-31T17:26:00.838Z,17.07
2022-10-31T17:28:27.799Z,19.70
2022-10-31T17:30:58.954Z,17.43
2022-10-31T17:33:26.327Z,18.87
2022-10-31T17:35:54.621Z,16.50
2022-10-31T17:38:21.645Z,23.13
2022-10-31T17:43:21.253Z,16.77
2022-10-31T17:45:48.395Z,18.50
2022-10-31T17:48:15.344Z,19.23
2022-10-31T17:50:42.281Z,18.60
2022-10-31T17:53:10.601Z,20.43
2022-10-31T17:55:37.839Z,15.03
2022-10-31T17:58:05.817Z,16.03
2022-10-31T18:00:33.474Z,15.23
2022-10-31T18:03:02.279Z,12.73
2022-10-31T18:05:29.486Z,13.93
2022-10-31T18:07:59.590Z,13.97
2022-10-31T18:10:32.006Z,15.40
2022-10-31T18:12:59.313Z,13.33
2022-10-31T18:15:26.517Z,16.47
2022-10-31T18:17:53.422Z,12.90
2022-10-31T18:20:20.354Z,14.40
2022-10-31T18:22:47.242Z,13.93
2022-10-31T18:25:15.819Z,13.30
2022-10-31T18:27:44.114Z,19.37
2022-10-31T18:30:11.816Z,13.60
2022-10-31T18:32:38.840Z,16.40
2022-10-31T18:35:06.773Z,11.67
2022-10-31T18:37:33.749Z,13.63
2022-10-31T18:40:00.881Z,13.87
2022-10-31T18:42:27.814Z,12.93
2022-10-31T18:44:56.147Z,11.97
2022-10-31T18:47:23.138Z,17.03
2022-10-31T18:49:50.126Z,12.40
2022-10-31T18:52:17.245Z,13.80
2022-10-31T18:54:44.717Z,12.33
2022-10-31T18:57:11.738Z,13.33
2022-10-31T18:59:38.737Z,11.40
2022-10-31T19:02:07.181Z,13.90
2022-10-31T19:04:34.346Z,12.37
2022-10-31T19:07:01.568Z,15.50
2022-10-31T19:09:30.827Z,12.17
2022-10-31T19:11:57.859Z,11.70
2022-10-31T19:14:24.896Z,11.03
2022-10-31T19:16:52.585Z,10.40
2022-10-31T19:19:21.321Z,9.50
2022-10-31T19:21:48.585Z,11.70
2022-10-31T19:24:15.524Z,12.20
2022-10-31T19:26:42.561Z,11.57
2022-10-31T19:29:10.475Z,11.70
2022-10-31T19:31:37.422Z,8.77
2022-10-31T19:34:04.625Z,11.17
2022-10-31T19:36:32.885Z,12.17
2022-10-31T19:38:59.824Z,13.43
2022-10-31T19:41:29.101Z,10.60
2022-10-31T19:43:58.958Z,9.90
2022-10-31T19:46:52.787Z,10.70
2022-10-31T19:49:13.041Z,12.67
2022-10-31T19:51:41.581Z,13.50
2022-10-31T19:54:08.594Z,13.17
2022-10-31T19:56:35.503Z,13.77
2022-10-31T19:59:03.891Z,13.87
2022-10-31T20:01:31.092Z,12.87
2022-10-31T20:03:58.248Z,19.23
2022-10-31T20:06:28.345Z,15.67
2022-10-31T20:08:57.857Z,20.33
2022-10-31T20:11:27.034Z,22.07
2022-10-31T20:13:55.819Z,15.13
2022-10-31T20:16:23.197Z,17.27
2022-10-31T20:18:50.280Z,20.70
2022-10-31T20:21:20.572Z,21.73
2022-10-31T20:23:47.993Z,20.43
2022-10-31T20:26:19.256Z,21.33
2022-10-31T20:28:46.649Z,18.77
2022-10-31T20:31:17.986Z,22.93
2022-10-31T20:33:45.010Z,28.30
2022-10-31T20:36:12.574Z,22.67
2022-10-31T20:38:41.559Z,25.33
2022-10-31T20:41:10.861Z,24.07
2022-10-31T20:43:39.593Z,23.70
2022-10-31T20:46:10.941Z,29.80
2022-10-31T20:48:39.666Z,26.83
2022-10-31T20:51:11.501Z,24.50
2022-10-31T20:53:38.595Z,28.57
2022-10-31T20:56:08.587Z,31.10
2022-10-31T20:58:37.251Z,29.43
2022-10-31T21:01:10.726Z,28.07
2022-10-31T21:03:38.176Z,33.83
2022-10-31T21:06:06.310Z,29.33
2022-10-31T21:08:33.985Z,29.20
2022-10-31T21:11:07.425Z,27.70
2022-10-31T21:13:40.537Z,30.90
2022-10-31T21:16:13.030Z,34.03
2022-10-31T21:18:42.529Z,31.10
2022-10-31T21:21:12.373Z,29.23
2022-10-31T21:23:40.524Z,32.00
2022-10-31T21:26:09.765Z,31.03
2022-10-31T21:28:37.338Z,32.93
2022-10-31T21:31:09.594Z,28.30
2022-10-31T21:33:37.341Z,33.33
2022-10-31T21:36:06.033Z,33.63
2022-10-31T21:38:33.471Z,31.73
2022-10-31T21:41:01.986Z,28.80
2022-10-31T21:43:29.672Z,34.80
2022-10-31T21:46:02.762Z,32.77
2022-10-31T21:48:31.115Z,32.43
2022-10-31T21:51:02.449Z,31.33
2022-10-31T21:53:48.282Z,37.37
2022-10-31T21:56:15.329Z,33.87
2022-10-31T21:58:42.339Z,32.80
2022-10-31T22:01:09.523Z,33.03
2022-10-31T22:03:41.184Z,36.47
2022-10-31T22:06:10.823Z,33.07
2022-10-31T22:08:38.106Z,34.07
2022-10-31T22:11:08.306Z,30.27
2022-10-31T22:13:37.014Z,37.40
2022-10-31T22:16:06.764Z,37.23
2022-10-31T22:18:34.738Z,37.90
2022-10-31T22:21:05.190Z,38.63
2022-10-31T22:23:32.401Z,39.67
2022-10-31T22:26:03.860Z,35.17
2022-10-31T22:28:31.013Z,37.03
2022-10-31T22:30:58.462Z,36.07
2022-10-31T22:33:26.031Z,40.43
2022-10-31T22:35:53.011Z,37.37
2022-10-31T22:38:21.275Z,38.10
2022-10-31T22:40:48.299Z,38.97
2022-10-31T22:43:15.235Z,41.87
2022-10-31T22:45:42.367Z,36.97
2022-10-31T22:48:09.365Z,43.93
2022-10-31T22:50:36.308Z,40.07
2022-10-31T22:53:03.256Z,43.30
2022-10-31T22:55:34.810Z,44.67
2022-10-31T22:58:02.077Z,39.60
2022-10-31T23:00:29.230Z,39.70
2022-10-31T23:02:56.148Z,44.67
2022-10-31T23:05:23.114Z,41.37
2022-10-31T23:07:50.102Z,42.20
2022-10-31T23:10:17.238Z,46.73
2022-10-31T23:13:04.174Z,40.00
2022-10-31T23:15:31.076Z,45.97
2022-10-31T23:17:58.073Z,41.97
2022-10-31T23:20:25.029Z,47.30
2022-10-31T23:22:51.938Z,42.20
2022-10-31T23:25:37.689Z,47.30
2022-10-31T23:28:06.027Z,44.83
2022-10-31T23:30:32.947Z,46.67
2022-10-31T23:33:00.099Z,45.27
2022-10-31T23:35:27.209Z,44.90
2022-10-31T23:37:54.171Z,44.53
2022-10-31T23:40:21.931Z,40.80
2022-10-31T23:42:48.836Z,45.77
2022-10-31T23:45:17.299Z,45.77
2022-10-31T23:47:44.240Z,43.70
2022-10-31T23:50:11.289Z,45.20
2022-10-31T23:52:38.233Z,49.00
2022-10-31T23:55:06.968Z,49.20
2022-10-31T23:57:33.942Z,39.97
